PWSweather.com
Personal Weather Stations
Station Observations
IFREISTO2
Freiston, FreistonGB PE22 0QJ

FreistonFreistonGB PE22 0QJ

Lat: 52.964, Lon: 0.041

Elevation: 16

Station Type: Fine Offset

http://www.midlifedad.me.uk/weather

Latest ConditionsUpdated 8:45:00 PM GMT Monday, Sep 23, 2019
Currently Today's Max Today's Min Today's Average
Temperature 57.2°F14.0°C 73.2°F22.9°C 52.5°F11.4°C 60.4°F15.8°C
Dew Point 55.8°F13.2°C 58.5°F14.7°C 51.1°F10.6°C 53.9°F12.2°C
Winds 5.0 mph SE8.0 kmh SE 8.6 mph -13.8 kmh - - 4.2 mph 6.8 kmh
Wind Gusts 11.4 mph18.3 kmh 17.4 mph28.0 kmh - -
Humidity 95% 99% 49% 81%
Pressure 29.75 in1007.5 mb 29.81 in1009.5 mb 29.70 in1005.8 mb -
Precipitation - 0.11 in2.8 mm - -
Hour Temp Dew Point Humidity Winds Wind Gusts Pressure Precip Precip Rate Daily Precip Total
08:45 PM 57.2°F14.0°C 55.8°F13.2°C 95% 5.0 mph SE8.0 kmh SE 11.4 mph18.3 kmh 29.75 in1007.5 mb 0.02 in0.5 mm 0.00 in0.0 mm 0.11 in2.8 mm
08:40 PM 57.2°F14.0°C 55.5°F13.1°C 94% 4.5 mph SE7.2 kmh SE 11.4 mph18.3 kmh 29.75 in1007.5 mb 0.02 in0.5 mm 0.00 in0.0 mm 0.11 in2.8 mm
08:35 PM 57.0°F13.9°C 55.6°F13.1°C 95% 4.3 mph E6.9 kmh E 8.3 mph13.4 kmh 29.75 in1007.5 mb 0.02 in0.5 mm 0.00 in0.0 mm 0.11 in2.8 mm
08:30 PM 57.0°F13.9°C 55.6°F13.1°C 95% 4.8 mph E7.7 kmh E 9.8 mph15.8 kmh 29.75 in1007.5 mb 0.02 in0.5 mm 0.00 in0.0 mm 0.11 in2.8 mm
08:25 PM 57.0°F13.9°C 55.6°F13.1°C 95% 5.3 mph E8.5 kmh E 9.8 mph15.8 kmh 29.75 in1007.5 mb 0.02 in0.5 mm 0.00 in0.0 mm 0.11 in2.8 mm
08:20 PM 56.8°F13.8°C 55.4°F13.0°C 95% 5.2 mph ESE8.4 kmh ESE 9.8 mph15.8 kmh 29.75 in1007.5 mb 0.04 in1.0 mm 0.00 in0.0 mm 0.11 in2.8 mm
08:15 PM 56.8°F13.8°C 55.4°F13.0°C 95% 4.9 mph SE7.9 kmh SE 9.8 mph15.8 kmh 29.75 in1007.5 mb 0.04 in1.0 mm 0.00 in0.0 mm 0.09 in2.3 mm
08:10 PM 56.8°F13.8°C 55.4°F13.0°C 95% 5.0 mph SE8.0 kmh SE 11.4 mph18.3 kmh 29.76 in1007.8 mb 0.04 in1.0 mm 0.00 in0.0 mm 0.09 in2.3 mm
08:05 PM 57.0°F13.9°C 55.6°F13.1°C 95% 5.4 mph ESE8.7 kmh ESE 11.4 mph18.3 kmh 29.76 in1007.8 mb 0.05 in1.3 mm 0.00 in0.0 mm 0.09 in2.3 mm
08:00 PM 57.2°F14.0°C 55.2°F12.9°C 93% 5.6 mph E9.0 kmh E 11.4 mph18.3 kmh 29.76 in1007.8 mb 0.06 in1.5 mm 0.00 in0.0 mm 0.09 in2.3 mm
07:55 PM 57.2°F14.0°C 55.2°F12.9°C 93% 5.5 mph SE8.9 kmh SE 11.4 mph18.3 kmh 29.77 in1008.1 mb 0.06 in1.5 mm 0.00 in0.0 mm 0.09 in2.3 mm
07:50 PM 57.4°F14.1°C 55.4°F13.0°C 93% 5.4 mph ESE8.7 kmh ESE 12.1 mph19.5 kmh 29.77 in1008.1 mb 0.06 in1.5 mm 0.00 in0.0 mm 0.08 in2.0 mm
07:45 PM 57.4°F14.1°C 55.1°F12.8°C 92% 5.8 mph E9.3 kmh E 12.1 mph19.5 kmh 29.77 in1008.1 mb 0.06 in1.5 mm 0.00 in0.0 mm 0.08 in2.0 mm
07:40 PM 57.4°F14.1°C 55.1°F12.8°C 92% 6.0 mph SE9.7 kmh SE 10.7 mph17.2 kmh 29.77 in1008.1 mb 0.06 in1.5 mm 0.00 in0.0 mm 0.08 in2.0 mm
07:35 PM 57.6°F14.2°C 55.3°F12.9°C 92% 6.7 mph S10.8 kmh S 14.5 mph23.3 kmh 29.78 in1008.5 mb 0.06 in1.5 mm 0.00 in0.0 mm 0.08 in2.0 mm
07:30 PM 57.6°F14.2°C 55.0°F12.8°C 91% 7.5 mph SSE12.1 kmh SSE 14.5 mph23.3 kmh 29.78 in1008.5 mb 0.06 in1.5 mm 0.00 in0.0 mm 0.08 in2.0 mm
07:25 PM 57.7°F14.3°C 55.1°F12.8°C 91% 7.3 mph SE11.7 kmh SE 13.0 mph20.9 kmh 29.78 in1008.5 mb 0.06 in1.5 mm 0.12 in3.0 mm 0.08 in2.0 mm
07:20 PM 57.7°F14.3°C 54.8°F12.7°C 90% 7.9 mph SE12.7 kmh SE 17.4 mph28.0 kmh 29.78 in1008.5 mb 0.05 in1.3 mm 0.00 in0.0 mm 0.07 in1.8 mm
07:15 PM 57.9°F14.4°C 54.7°F12.6°C 89% 7.3 mph SE11.7 kmh SE 17.4 mph28.0 kmh 29.78 in1008.5 mb 0.05 in1.3 mm 0.12 in3.0 mm 0.06 in1.5 mm
07:10 PM 58.1°F14.5°C 54.9°F12.7°C 89% 6.0 mph SE9.7 kmh SE 12.1 mph19.5 kmh 29.78 in1008.5 mb 0.04 in1.0 mm 0.00 in0.0 mm 0.05 in1.3 mm
07:05 PM 58.3°F14.6°C 54.7°F12.6°C 88% 6.2 mph ESE10.0 kmh ESE 10.7 mph17.2 kmh 29.78 in1008.5 mb 0.04 in1.0 mm 0.24 in6.1 mm 0.05 in1.3 mm
07:00 PM 58.5°F14.7°C 54.9°F12.7°C 88% 6.2 mph SE10.0 kmh SE 10.7 mph17.2 kmh 29.78 in1008.5 mb 0.02 in0.5 mm 0.00 in0.0 mm 0.04 in1.0 mm
06:55 PM 58.6°F14.8°C 55.1°F12.8°C 88% 5.4 mph SSE8.7 kmh SSE 9.8 mph15.8 kmh 29.78 in1008.5 mb 0.02 in0.5 mm 0.12 in3.0 mm 0.04 in1.0 mm
06:50 PM 58.8°F14.9°C 55.0°F12.8°C 87% 4.8 mph S7.7 kmh S 9.2 mph14.8 kmh 29.78 in1008.5 mb 0.01 in0.3 mm 0.00 in0.0 mm 0.02 in0.5 mm
06:45 PM 59.0°F15.0°C 54.5°F12.5°C 85% 4.1 mph S6.6 kmh S 9.2 mph14.8 kmh 29.79 in1008.8 mb 0.01 in0.3 mm 0.00 in0.0 mm 0.02 in0.5 mm
06:40 PM 59.0°F15.0°C 54.5°F12.5°C 85% 3.2 mph S5.1 kmh S 9.2 mph14.8 kmh 29.79 in1008.8 mb 0.01 in0.3 mm 0.00 in0.0 mm 0.02 in0.5 mm
06:35 PM 59.2°F15.1°C 54.3°F12.4°C 84% 3.1 mph S5.0 kmh S 9.2 mph14.8 kmh 29.79 in1008.8 mb 0.01 in0.3 mm 0.00 in0.0 mm 0.02 in0.5 mm
06:30 PM 59.4°F15.2°C 54.2°F12.3°C 83% 2.6 mph SW4.2 kmh SW 6.9 mph11.1 kmh 29.79 in1008.8 mb 0.01 in0.3 mm 0.00 in0.0 mm 0.02 in0.5 mm
06:25 PM 59.5°F15.3°C 54.4°F12.4°C 83% 2.4 mph WSW3.9 kmh WSW 6.9 mph11.1 kmh 29.79 in1008.8 mb 0.01 in0.3 mm 0.00 in0.0 mm 0.02 in0.5 mm
06:20 PM 59.5°F15.3°C 54.4°F12.4°C 83% 3.0 mph W4.8 kmh W 6.9 mph11.1 kmh 29.79 in1008.8 mb 0.01 in0.3 mm 0.12 in3.0 mm 0.02 in0.5 mm
06:15 PM 59.7°F15.4°C 54.2°F12.3°C 82% 3.7 mph WSW6.0 kmh WSW 9.2 mph14.8 kmh 29.78 in1008.5 mb 0.00 in0.0 mm 0.00 in0.0 mm 0.01 in0.3 mm
06:10 PM 60.1°F15.6°C 53.9°F12.2°C 80% 3.9 mph WSW6.3 kmh WSW 9.2 mph14.8 kmh 29.78 in1008.5 mb 0.00 in0.0 mm 0.00 in0.0 mm 0.01 in0.3 mm
06:05 PM 60.3°F15.7°C 53.7°F12.1°C 79% 3.9 mph W6.3 kmh W 8.3 mph13.4 kmh 29.78 in1008.5 mb 0.00 in0.0 mm 0.00 in0.0 mm 0.01 in0.3 mm
06:00 PM 60.4°F15.8°C 53.9°F12.2°C 79% 4.0 mph WSW6.4 kmh WSW 9.8 mph15.8 kmh 29.78 in1008.5 mb 0.00 in0.0 mm 0.00 in0.0 mm 0.01 in0.3 mm
05:55 PM 60.8°F16.0°C 53.2°F11.8°C 76% 3.4 mph WSW5.5 kmh WSW 9.8 mph15.8 kmh 29.78 in1008.5 mb 0.00 in0.0 mm 0.00 in0.0 mm 0.01 in0.3 mm
05:50 PM 61.2°F16.2°C 53.2°F11.8°C 75% 2.3 mph WNW3.7 kmh WNW 6.0 mph9.7 kmh 29.78 in1008.5 mb 0.00 in0.0 mm 0.00 in0.0 mm 0.01 in0.3 mm
05:45 PM 61.5°F16.4°C 53.2°F11.8°C 74% 2.2 mph W3.5 kmh W 4.5 mph7.2 kmh 29.78 in1008.5 mb 0.00 in0.0 mm 0.00 in0.0 mm 0.01 in0.3 mm
05:40 PM 61.7°F16.5°C 53.0°F11.7°C 73% 2.7 mph WSW4.3 kmh WSW 7.6 mph12.2 kmh 29.78 in1008.5 mb 0.00 in0.0 mm 0.00 in0.0 mm 0.01 in0.3 mm
05:35 PM 62.1°F16.7°C 52.9°F11.6°C 72% 2.6 mph WSW4.2 kmh WSW 7.6 mph12.2 kmh 29.78 in1008.5 mb 0.00 in0.0 mm 0.00 in0.0 mm 0.01 in0.3 mm
05:30 PM 62.4°F16.9°C 52.9°F11.6°C 71% 2.5 mph W4.0 kmh W 6.0 mph9.7 kmh 29.78 in1008.5 mb 0.00 in0.0 mm 0.00 in0.0 mm 0.01 in0.3 mm
05:25 PM 62.6°F17.0°C 52.3°F11.3°C 69% 2.9 mph WSW4.7 kmh WSW 7.6 mph12.2 kmh 29.77 in1008.1 mb 0.00 in0.0 mm 0.00 in0.0 mm 0.01 in0.3 mm
05:20 PM 63.0°F17.2°C 52.2°F11.2°C 68% 3.2 mph WSW5.1 kmh WSW 7.6 mph12.2 kmh 29.78 in1008.5 mb 0.00 in0.0 mm 0.00 in0.0 mm 0.01 in0.3 mm
05:15 PM 63.3°F17.4°C 52.2°F11.2°C 67% 3.2 mph WNW5.1 kmh WNW 7.6 mph12.2 kmh 29.78 in1008.5 mb 0.00 in0.0 mm 0.00 in0.0 mm 0.01 in0.3 mm
05:10 PM 63.7°F17.6°C 52.1°F11.2°C 66% 3.4 mph NW5.5 kmh NW 8.3 mph13.4 kmh 29.77 in1008.1 mb 0.00 in0.0 mm 0.00 in0.0 mm 0.01 in0.3 mm
05:05 PM 64.0°F17.8°C 52.0°F11.1°C 65% 3.7 mph WNW6.0 kmh WNW 9.2 mph14.8 kmh 29.77 in1008.1 mb 0.00 in0.0 mm 0.00 in0.0 mm 0.01 in0.3 mm
05:00 PM 64.2°F17.9°C 52.2°F11.2°C 65% 4.3 mph S6.9 kmh S 11.4 mph18.3 kmh 29.77 in1008.1 mb 0.00 in0.0 mm 0.00 in0.0 mm 0.01 in0.3 mm
04:55 PM 64.4°F18.0°C 52.4°F11.3°C 65% 4.6 mph SSW7.4 kmh SSW 11.4 mph18.3 kmh 29.77 in1008.1 mb 0.00 in0.0 mm 0.00 in0.0 mm 0.01 in0.3 mm
04:50 PM 64.6°F18.1°C 52.5°F11.4°C 65% 4.7 mph SSE7.6 kmh SSE 10.7 mph17.2 kmh 29.77 in1008.1 mb 0.00 in0.0 mm 0.00 in0.0 mm 0.01 in0.3 mm
04:45 PM 64.9°F18.3°C 52.9°F11.6°C 65% 4.5 mph SE7.2 kmh SE 9.2 mph14.8 kmh 29.78 in1008.5 mb 0.00 in0.0 mm 0.00 in0.0 mm 0.01 in0.3 mm
04:40 PM 65.1°F18.4°C 52.6°F11.4°C 64% 4.2 mph SSE6.8 kmh SSE 7.6 mph12.2 kmh 29.77 in1008.1 mb 0.00 in0.0 mm 0.00 in0.0 mm 0.01 in0.3 mm
04:35 PM 65.1°F18.4°C 52.6°F11.4°C 64% 4.3 mph SSE6.9 kmh SSE 8.3 mph13.4 kmh 29.77 in1008.1 mb 0.00 in0.0 mm 0.00 in0.0 mm 0.01 in0.3 mm
04:30 PM 65.3°F18.5°C 52.4°F11.3°C 63% 4.2 mph SSE6.8 kmh SSE 8.3 mph13.4 kmh 29.78 in1008.5 mb 0.00 in0.0 mm 0.00 in0.0 mm 0.01 in0.3 mm
04:25 PM 65.5°F18.6°C 52.1°F11.2°C 62% 3.8 mph SE6.1 kmh SE 9.2 mph14.8 kmh 29.78 in1008.5 mb 0.00 in0.0 mm 0.00 in0.0 mm 0.01 in0.3 mm
04:20 PM 65.7°F18.7°C 52.3°F11.3°C 62% 3.0 mph E4.8 kmh E 9.2 mph14.8 kmh 29.78 in1008.5 mb 0.00 in0.0 mm 0.00 in0.0 mm 0.01 in0.3 mm
04:15 PM 65.8°F18.8°C 52.0°F11.1°C 61% 2.2 mph NNW3.5 kmh NNW 6.0 mph9.7 kmh 29.78 in1008.5 mb 0.00 in0.0 mm 0.00 in0.0 mm 0.01 in0.3 mm
04:10 PM 66.2°F19.0°C 51.9°F11.1°C 60% 1.8 mph NW2.9 kmh NW 3.8 mph6.1 kmh 29.78 in1008.5 mb 0.00 in0.0 mm 0.00 in0.0 mm 0.01 in0.3 mm
04:05 PM 66.4°F19.1°C 51.6°F10.9°C 59% 2.2 mph NW3.5 kmh NW 6.0 mph9.7 kmh 29.78 in1008.5 mb 0.00 in0.0 mm 0.00 in0.0 mm 0.01 in0.3 mm
04:00 PM 66.6°F19.2°C 51.3°F10.7°C 58% 2.3 mph WSW3.7 kmh WSW 6.0 mph9.7 kmh 29.78 in1008.5 mb 0.00 in0.0 mm 0.00 in0.0 mm 0.01 in0.3 mm
03:55 PM 67.1°F19.5°C 51.8°F11.0°C 58% 2.4 mph S3.9 kmh S 7.6 mph12.2 kmh 29.78 in1008.5 mb 0.00 in0.0 mm 0.00 in0.0 mm 0.01 in0.3 mm
03:50 PM 67.5°F19.7°C 51.7°F10.9°C 57% 2.5 mph SSW4.0 kmh SSW 7.6 mph12.2 kmh 29.78 in1008.5 mb 0.00 in0.0 mm 0.00 in0.0 mm 0.01 in0.3 mm
03:45 PM 68.4°F20.2°C 51.1°F10.6°C 54% 2.4 mph WSW3.9 kmh WSW 6.9 mph11.1 kmh 29.78 in1008.5 mb 0.00 in0.0 mm 0.00 in0.0 mm 0.01 in0.3 mm
03:40 PM 69.1°F20.6°C 51.7°F10.9°C 54% 2.5 mph ENE4.0 kmh ENE 9.8 mph15.8 kmh 29.78 in1008.5 mb 0.00 in0.0 mm 0.00 in0.0 mm 0.01 in0.3 mm
03:35 PM 70.2°F21.2°C 51.7°F10.9°C 52% 2.4 mph ENE3.9 kmh ENE 9.8 mph15.8 kmh 29.78 in1008.5 mb 0.00 in0.0 mm 0.00 in0.0 mm 0.01 in0.3 mm
03:30 PM 70.7°F21.5°C 52.2°F11.2°C 52% 3.3 mph SW5.3 kmh SW 9.2 mph14.8 kmh 29.78 in1008.5 mb 0.00 in0.0 mm 0.00 in0.0 mm 0.01 in0.3 mm
03:25 PM 71.1°F21.7°C 52.5°F11.4°C 52% 4.7 mph SW7.6 kmh SW 11.4 mph18.3 kmh 29.78 in1008.5 mb 0.00 in0.0 mm 0.00 in0.0 mm 0.01 in0.3 mm
03:20 PM 71.2°F21.8°C 51.1°F10.6°C 49% 5.0 mph SW8.0 kmh SW 11.4 mph18.3 kmh 29.78 in1008.5 mb 0.00 in0.0 mm 0.00 in0.0 mm 0.01 in0.3 mm
03:15 PM 70.7°F21.5°C 51.7°F10.9°C 51% 4.9 mph WSW7.9 kmh WSW 9.8 mph15.8 kmh 29.78 in1008.5 mb 0.00 in0.0 mm 0.00 in0.0 mm 0.01 in0.3 mm
03:10 PM 69.6°F20.9°C 51.7°F10.9°C 53% 5.0 mph W8.0 kmh W 11.4 mph18.3 kmh 29.78 in1008.5 mb 0.00 in0.0 mm 0.00 in0.0 mm 0.01 in0.3 mm
03:05 PM 70.3°F21.3°C 51.3°F10.7°C 51% 5.0 mph W8.0 kmh W 11.4 mph18.3 kmh 29.78 in1008.5 mb 0.00 in0.0 mm 0.00 in0.0 mm 0.01 in0.3 mm
03:00 PM 72.1°F22.3°C 51.9°F11.1°C 49% 4.5 mph WNW7.2 kmh WNW 11.4 mph18.3 kmh 29.78 in1008.5 mb 0.00 in0.0 mm 0.00 in0.0 mm 0.01 in0.3 mm
02:55 PM 71.6°F22.0°C 53.0°F11.7°C 52% 3.8 mph ESE6.1 kmh ESE 11.4 mph18.3 kmh 29.79 in1008.8 mb 0.00 in0.0 mm 0.00 in0.0 mm 0.01 in0.3 mm
02:50 PM 70.7°F21.5°C 52.2°F11.2°C 52% 3.6 mph SE5.8 kmh SE 9.8 mph15.8 kmh 29.79 in1008.8 mb 0.00 in0.0 mm 0.00 in0.0 mm 0.01 in0.3 mm
02:45 PM 71.6°F22.0°C 52.0°F11.1°C 50% 4.2 mph SSE6.8 kmh SSE 9.8 mph15.8 kmh 29.78 in1008.5 mb 0.00 in0.0 mm 0.00 in0.0 mm 0.01 in0.3 mm
02:40 PM 73.2°F22.9°C 52.9°F11.6°C 49% 4.8 mph SSE7.7 kmh SSE 10.7 mph17.2 kmh 29.79 in1008.8 mb 0.00 in0.0 mm 0.00 in0.0 mm 0.01 in0.3 mm
02:35 PM 73.2°F22.9°C 53.5°F11.9°C 50% 3.7 mph S6.0 kmh S 10.7 mph17.2 kmh 29.79 in1008.8 mb 0.00 in0.0 mm 0.00 in0.0 mm 0.01 in0.3 mm
02:30 PM 72.1°F22.3°C 53.5°F11.9°C 52% 3.3 mph SSE5.3 kmh SSE 10.7 mph17.2 kmh 29.79 in1008.8 mb 0.00 in0.0 mm 0.00 in0.0 mm 0.01 in0.3 mm
02:25 PM 70.3°F21.3°C 52.4°F11.3°C 53% 3.2 mph SSE5.1 kmh SSE 7.6 mph12.2 kmh 29.79 in1008.8 mb 0.00 in0.0 mm 0.00 in0.0 mm 0.01 in0.3 mm
02:20 PM 69.3°F20.7°C 52.4°F11.3°C 55% 3.1 mph SW5.0 kmh SW 7.6 mph12.2 kmh 29.79 in1008.8 mb 0.00 in0.0 mm 0.00 in0.0 mm 0.01 in0.3 mm
02:15 PM 69.1°F20.6°C 51.7°F10.9°C 54% 3.9 mph SW6.3 kmh SW 7.6 mph12.2 kmh 29.79 in1008.8 mb 0.00 in0.0 mm 0.00 in0.0 mm 0.01 in0.3 mm
02:10 PM 69.6°F20.9°C 51.7°F10.9°C 53% 3.9 mph SW6.3 kmh SW 7.6 mph12.2 kmh 29.80 in1009.1 mb 0.00 in0.0 mm 0.00 in0.0 mm 0.01 in0.3 mm
02:05 PM 70.3°F21.3°C 52.4°F11.3°C 53% 4.7 mph WSW7.6 kmh WSW 11.4 mph18.3 kmh 29.80 in1009.1 mb 0.00 in0.0 mm 0.00 in0.0 mm 0.01 in0.3 mm
02:00 PM 70.2°F21.2°C 52.2°F11.2°C 53% 5.2 mph SW8.4 kmh SW 11.4 mph18.3 kmh 29.80 in1009.1 mb 0.00 in0.0 mm 0.00 in0.0 mm 0.01 in0.3 mm
01:55 PM 69.8°F21.0°C 52.4°F11.3°C 54% 4.0 mph WSW6.4 kmh WSW 9.2 mph14.8 kmh 29.80 in1009.1 mb 0.00 in0.0 mm 0.00 in0.0 mm 0.01 in0.3 mm
01:50 PM 69.4°F20.8°C 52.6°F11.4°C 55% 4.1 mph WSW6.6 kmh WSW 9.8 mph15.8 kmh 29.80 in1009.1 mb 0.00 in0.0 mm 0.00 in0.0 mm 0.01 in0.3 mm
01:45 PM 69.4°F20.8°C 52.1°F11.2°C 54% 5.2 mph WSW8.4 kmh WSW 9.8 mph15.8 kmh 29.80 in1009.1 mb 0.00 in0.0 mm 0.00 in0.0 mm 0.01 in0.3 mm
01:40 PM 70.2°F21.2°C 52.7°F11.5°C 54% 6.3 mph WSW10.1 kmh WSW 12.1 mph19.5 kmh 29.80 in1009.1 mb 0.00 in0.0 mm 0.00 in0.0 mm 0.01 in0.3 mm
01:35 PM 70.0°F21.1°C 52.6°F11.4°C 54% 6.4 mph SW10.3 kmh SW 14.5 mph23.3 kmh 29.81 in1009.5 mb 0.00 in0.0 mm 0.00 in0.0 mm 0.01 in0.3 mm
01:30 PM 71.1°F21.7°C 52.5°F11.4°C 52% 5.1 mph SW8.2 kmh SW 14.5 mph23.3 kmh 29.81 in1009.5 mb 0.00 in0.0 mm 0.00 in0.0 mm 0.01 in0.3 mm
01:25 PM 70.2°F21.2°C 52.7°F11.5°C 54% 5.0 mph SW8.0 kmh SW 12.1 mph19.5 kmh 29.81 in1009.5 mb 0.00 in0.0 mm 0.00 in0.0 mm 0.01 in0.3 mm
01:20 PM 70.0°F21.1°C 52.6°F11.4°C 54% 5.7 mph SW9.2 kmh SW 12.1 mph19.5 kmh 29.80 in1009.1 mb 0.00 in0.0 mm 0.00 in0.0 mm 0.01 in0.3 mm
01:15 PM 69.4°F20.8°C 53.1°F11.7°C 56% 6.0 mph SW9.7 kmh SW 13.0 mph20.9 kmh 29.81 in1009.5 mb 0.00 in0.0 mm 0.00 in0.0 mm 0.01 in0.3 mm
01:10 PM 69.4°F20.8°C 52.6°F11.4°C 55% 6.4 mph WSW10.3 kmh WSW 13.0 mph20.9 kmh 29.81 in1009.5 mb 0.00 in0.0 mm 0.00 in0.0 mm 0.01 in0.3 mm
01:05 PM 70.7°F21.5°C 53.2°F11.8°C 54% 5.6 mph W9.0 kmh W 11.4 mph18.3 kmh 29.81 in1009.5 mb 0.00 in0.0 mm 0.00 in0.0 mm 0.01 in0.3 mm
01:00 PM 70.9°F21.6°C 53.9°F12.2°C 55% 4.9 mph WSW7.9 kmh WSW 10.7 mph17.2 kmh 29.81 in1009.5 mb 0.00 in0.0 mm 0.00 in0.0 mm 0.01 in0.3 mm
12:55 PM 69.8°F21.0°C 53.9°F12.2°C 57% 6.5 mph SW10.5 kmh SW 14.5 mph23.3 kmh 29.81 in1009.5 mb 0.00 in0.0 mm 0.00 in0.0 mm 0.01 in0.3 mm
12:50 PM 68.9°F20.5°C 53.0°F11.7°C 57% 7.0 mph SW11.3 kmh SW 14.5 mph23.3 kmh 29.81 in1009.5 mb 0.00 in0.0 mm 0.00 in0.0 mm 0.01 in0.3 mm
12:45 PM 68.5°F20.3°C 53.6°F12.0°C 59% 7.2 mph SW11.6 kmh SW 13.6 mph21.9 kmh 29.80 in1009.1 mb 0.00 in0.0 mm 0.00 in0.0 mm 0.01 in0.3 mm
12:40 PM 67.6°F19.8°C 52.8°F11.6°C 59% 8.0 mph SW12.9 kmh SW 13.6 mph21.9 kmh 29.80 in1009.1 mb 0.00 in0.0 mm 0.00 in0.0 mm 0.01 in0.3 mm
12:35 PM 67.8°F19.9°C 53.4°F11.9°C 60% 7.7 mph SW12.4 kmh SW 13.6 mph21.9 kmh 29.81 in1009.5 mb 0.00 in0.0 mm 0.00 in0.0 mm 0.01 in0.3 mm
12:30 PM 66.4°F19.1°C 53.0°F11.7°C 62% 7.5 mph SW12.1 kmh SW 13.0 mph20.9 kmh 29.81 in1009.5 mb 0.00 in0.0 mm 0.00 in0.0 mm 0.01 in0.3 mm
12:25 PM 65.7°F18.7°C 52.7°F11.5°C 63% 7.4 mph SW11.9 kmh SW 14.5 mph23.3 kmh 29.81 in1009.5 mb 0.00 in0.0 mm 0.00 in0.0 mm 0.01 in0.3 mm
12:20 PM 66.2°F19.0°C 51.4°F10.8°C 59% 7.4 mph SW11.9 kmh SW 14.5 mph23.3 kmh 29.81 in1009.5 mb 0.00 in0.0 mm 0.00 in0.0 mm 0.01 in0.3 mm
12:15 PM 67.1°F19.5°C 52.3°F11.3°C 59% 6.8 mph WSW10.9 kmh WSW 11.4 mph18.3 kmh 29.81 in1009.5 mb 0.00 in0.0 mm 0.00 in0.0 mm 0.01 in0.3 mm
12:10 PM 67.1°F19.5°C 53.6°F12.0°C 62% 6.2 mph SW10.0 kmh SW 10.7 mph17.2 kmh 29.81 in1009.5 mb 0.00 in0.0 mm 0.00 in0.0 mm 0.01 in0.3 mm
12:05 PM 66.7°F19.3°C 53.7°F12.1°C 63% 6.2 mph SW10.0 kmh SW 11.4 mph18.3 kmh 29.81 in1009.5 mb 0.00 in0.0 mm 0.00 in0.0 mm 0.01 in0.3 mm
12:00 PM 67.6°F19.8°C 55.5°F13.1°C 65% 6.1 mph SW9.8 kmh SW 11.4 mph18.3 kmh 29.81 in1009.5 mb 0.00 in0.0 mm 0.00 in0.0 mm 0.01 in0.3 mm
11:55 AM 67.1°F19.5°C 54.5°F12.5°C 64% 5.5 mph SW8.9 kmh SW 9.8 mph15.8 kmh 29.80 in1009.1 mb 0.00 in0.0 mm 0.00 in0.0 mm 0.01 in0.3 mm
11:50 AM 66.9°F19.4°C 54.8°F12.7°C 65% 4.7 mph WSW7.6 kmh WSW 9.8 mph15.8 kmh 29.81 in1009.5 mb 0.00 in0.0 mm 0.00 in0.0 mm 0.01 in0.3 mm
11:45 AM 67.6°F19.8°C 55.5°F13.1°C 65% 4.7 mph WSW7.6 kmh WSW 10.7 mph17.2 kmh 29.81 in1009.5 mb 0.00 in0.0 mm 0.00 in0.0 mm 0.01 in0.3 mm
11:40 AM 67.3°F19.6°C 54.7°F12.6°C 64% 5.1 mph WSW8.2 kmh WSW 10.7 mph17.2 kmh 29.81 in1009.5 mb 0.00 in0.0 mm 0.00 in0.0 mm 0.01 in0.3 mm
11:35 AM 68.0°F20.0°C 55.4°F13.0°C 64% 5.0 mph SW8.0 kmh SW 9.8 mph15.8 kmh 29.81 in1009.5 mb 0.00 in0.0 mm 0.00 in0.0 mm 0.01 in0.3 mm
11:30 AM 67.8°F19.9°C 56.9°F13.8°C 68% 5.5 mph SW8.9 kmh SW 9.8 mph15.8 kmh 29.81 in1009.5 mb 0.00 in0.0 mm 0.00 in0.0 mm 0.01 in0.3 mm
11:25 AM 65.8°F18.8°C 56.6°F13.7°C 72% 6.1 mph WSW9.8 kmh WSW 9.8 mph15.8 kmh 29.81 in1009.5 mb 0.00 in0.0 mm 0.00 in0.0 mm 0.01 in0.3 mm
11:20 AM 64.2°F17.9°C 55.0°F12.8°C 72% 6.0 mph WSW9.7 kmh WSW 9.8 mph15.8 kmh 29.81 in1009.5 mb 0.00 in0.0 mm 0.00 in0.0 mm 0.01 in0.3 mm
11:15 AM 64.2°F17.9°C 55.0°F12.8°C 72% 6.0 mph WSW9.7 kmh WSW 9.8 mph15.8 kmh 29.81 in1009.5 mb 0.00 in0.0 mm 0.00 in0.0 mm 0.01 in0.3 mm
11:10 AM 64.0°F17.8°C 54.8°F12.7°C 72% 6.1 mph SW9.8 kmh SW 10.7 mph17.2 kmh 29.81 in1009.5 mb 0.00 in0.0 mm 0.00 in0.0 mm 0.01 in0.3 mm
11:05 AM 63.5°F17.5°C 53.9°F12.2°C 71% 6.3 mph SW10.1 kmh SW 11.4 mph18.3 kmh 29.81 in1009.5 mb 0.00 in0.0 mm 0.00 in0.0 mm 0.01 in0.3 mm
11:00 AM 64.2°F17.9°C 54.2°F12.3°C 70% 6.6 mph SW10.6 kmh SW 11.4 mph18.3 kmh 29.81 in1009.5 mb 0.00 in0.0 mm 0.00 in0.0 mm 0.01 in0.3 mm
10:55 AM 65.1°F18.4°C 54.7°F12.6°C 69% 7.3 mph SW11.7 kmh SW 12.1 mph19.5 kmh 29.81 in1009.5 mb 0.00 in0.0 mm 0.00 in0.0 mm 0.01 in0.3 mm
10:50 AM 65.1°F18.4°C 55.5°F13.1°C 71% 7.7 mph SW12.4 kmh SW 13.6 mph21.9 kmh 29.81 in1009.5 mb 0.00 in0.0 mm 0.00 in0.0 mm 0.01 in0.3 mm
10:45 AM 64.6°F18.1°C 54.6°F12.6°C 70% 7.3 mph SW11.7 kmh SW 13.6 mph21.9 kmh 29.81 in1009.5 mb 0.00 in0.0 mm 0.00 in0.0 mm 0.01 in0.3 mm
10:40 AM 64.4°F18.0°C 54.8°F12.7°C 71% 7.4 mph WSW11.9 kmh WSW 13.6 mph21.9 kmh 29.80 in1009.1 mb 0.00 in0.0 mm 0.00 in0.0 mm 0.01 in0.3 mm
10:35 AM 64.4°F18.0°C 54.4°F12.4°C 70% 7.1 mph WSW11.4 kmh WSW 13.0 mph20.9 kmh 29.81 in1009.5 mb 0.00 in0.0 mm 0.00 in0.0 mm 0.01 in0.3 mm
10:30 AM 64.9°F18.3°C 55.3°F12.9°C 71% 7.1 mph SW11.4 kmh SW 13.0 mph20.9 kmh 29.80 in1009.1 mb 0.00 in0.0 mm 0.00 in0.0 mm 0.01 in0.3 mm
10:25 AM 65.1°F18.4°C 55.5°F13.1°C 71% 7.1 mph SW11.4 kmh SW 11.4 mph18.3 kmh 29.80 in1009.1 mb 0.00 in0.0 mm 0.00 in0.0 mm 0.01 in0.3 mm
10:20 AM 65.3°F18.5°C 56.4°F13.6°C 73% 6.1 mph SW9.8 kmh SW 10.7 mph17.2 kmh 29.80 in1009.1 mb 0.00 in0.0 mm 0.00 in0.0 mm 0.01 in0.3 mm
10:15 AM 64.6°F18.1°C 56.1°F13.4°C 74% 5.8 mph SW9.3 kmh SW 10.7 mph17.2 kmh 29.80 in1009.1 mb 0.00 in0.0 mm 0.00 in0.0 mm 0.01 in0.3 mm
10:10 AM 64.0°F17.8°C 55.6°F13.1°C 74% 6.6 mph SW10.6 kmh SW 10.7 mph17.2 kmh 29.80 in1009.1 mb 0.00 in0.0 mm 0.00 in0.0 mm 0.01 in0.3 mm
10:05 AM 63.7°F17.6°C 54.9°F12.7°C 73% 7.4 mph SW11.9 kmh SW 11.4 mph18.3 kmh 29.80 in1009.1 mb 0.00 in0.0 mm 0.00 in0.0 mm 0.01 in0.3 mm
10:00 AM 63.0°F17.2°C 54.2°F12.3°C 73% 7.5 mph SW12.1 kmh SW 13.6 mph21.9 kmh 29.81 in1009.5 mb 0.00 in0.0 mm 0.00 in0.0 mm 0.01 in0.3 mm
09:55 AM 63.1°F17.3°C 54.3°F12.4°C 73% 7.8 mph SW12.6 kmh SW 13.6 mph21.9 kmh 29.80 in1009.1 mb 0.00 in0.0 mm 0.00 in0.0 mm 0.01 in0.3 mm
09:50 AM 63.5°F17.5°C 55.8°F13.2°C 76% 7.7 mph SW12.4 kmh SW 13.6 mph21.9 kmh 29.81 in1009.5 mb 0.00 in0.0 mm 0.00 in0.0 mm 0.01 in0.3 mm
09:45 AM 63.3°F17.4°C 55.6°F13.1°C 76% 7.3 mph SW11.7 kmh SW 12.1 mph19.5 kmh 29.80 in1009.1 mb 0.00 in0.0 mm 0.00 in0.0 mm 0.01 in0.3 mm
09:40 AM 63.0°F17.2°C 55.3°F12.9°C 76% 7.8 mph SW12.6 kmh SW 13.0 mph20.9 kmh 29.80 in1009.1 mb 0.00 in0.0 mm 0.00 in0.0 mm 0.01 in0.3 mm
09:35 AM 62.8°F17.1°C 55.5°F13.1°C 77% 8.6 mph SW13.8 kmh SW 14.5 mph23.3 kmh 29.80 in1009.1 mb 0.00 in0.0 mm 0.00 in0.0 mm 0.01 in0.3 mm
09:30 AM 62.8°F17.1°C 55.8°F13.2°C 78% 8.5 mph SW13.7 kmh SW 14.5 mph23.3 kmh 29.80 in1009.1 mb 0.00 in0.0 mm 0.00 in0.0 mm 0.01 in0.3 mm
09:25 AM 62.8°F17.1°C 56.2°F13.4°C 79% 8.1 mph SW13.0 kmh SW 15.2 mph24.5 kmh 29.80 in1009.1 mb 0.00 in0.0 mm 0.00 in0.0 mm 0.01 in0.3 mm
09:20 AM 62.4°F16.9°C 56.2°F13.4°C 80% 7.5 mph SW12.1 kmh SW 15.2 mph24.5 kmh 29.80 in1009.1 mb 0.00 in0.0 mm 0.00 in0.0 mm 0.01 in0.3 mm
09:15 AM 62.2°F16.8°C 56.7°F13.7°C 82% 7.2 mph SW11.6 kmh SW 13.0 mph20.9 kmh 29.80 in1009.1 mb 0.00 in0.0 mm 0.00 in0.0 mm 0.01 in0.3 mm
09:10 AM 61.7°F16.5°C 56.5°F13.6°C 83% 7.9 mph SW12.7 kmh SW 13.6 mph21.9 kmh 29.80 in1009.1 mb 0.00 in0.0 mm 0.00 in0.0 mm 0.01 in0.3 mm
09:05 AM 61.5°F16.4°C 56.3°F13.5°C 83% 8.4 mph WSW13.5 kmh WSW 13.6 mph21.9 kmh 29.80 in1009.1 mb 0.00 in0.0 mm 0.00 in0.0 mm 0.01 in0.3 mm
09:00 AM 61.2°F16.2°C 56.3°F13.5°C 84% 8.6 mph WSW13.8 kmh WSW 13.6 mph21.9 kmh 29.79 in1008.8 mb 0.00 in0.0 mm 0.00 in0.0 mm 0.01 in0.3 mm
08:55 AM 61.2°F16.2°C 56.3°F13.5°C 84% 8.2 mph SW13.2 kmh SW 13.6 mph21.9 kmh 29.79 in1008.8 mb 0.00 in0.0 mm 0.00 in0.0 mm 0.01 in0.3 mm
08:50 AM 61.2°F16.2°C 56.9°F13.8°C 86% 7.6 mph SW12.2 kmh SW 13.0 mph20.9 kmh 29.79 in1008.8 mb 0.00 in0.0 mm 0.00 in0.0 mm 0.01 in0.3 mm
08:45 AM 60.8°F16.0°C 56.6°F13.7°C 86% 7.7 mph SW12.4 kmh SW 13.0 mph20.9 kmh 29.80 in1009.1 mb 0.00 in0.0 mm 0.00 in0.0 mm 0.01 in0.3 mm
08:40 AM 60.6°F15.9°C 57.0°F13.9°C 88% 7.7 mph SW12.4 kmh SW 13.0 mph20.9 kmh 29.79 in1008.8 mb 0.00 in0.0 mm 0.00 in0.0 mm 0.01 in0.3 mm
08:35 AM 60.4°F15.8°C 57.5°F14.2°C 90% 7.4 mph SW11.9 kmh SW 13.0 mph20.9 kmh 29.79 in1008.8 mb 0.00 in0.0 mm 0.00 in0.0 mm 0.01 in0.3 mm
08:30 AM 60.1°F15.6°C 57.7°F14.3°C 92% 7.5 mph SW12.1 kmh SW 14.5 mph23.3 kmh 29.79 in1008.8 mb 0.00 in0.0 mm 0.00 in0.0 mm 0.01 in0.3 mm
08:25 AM 59.9°F15.5°C 58.2°F14.6°C 94% 7.4 mph SW11.9 kmh SW 14.5 mph23.3 kmh 29.79 in1008.8 mb 0.00 in0.0 mm 0.00 in0.0 mm 0.01 in0.3 mm
08:20 AM 59.7°F15.4°C 58.3°F14.6°C 95% 6.9 mph SW11.1 kmh SW 14.5 mph23.3 kmh 29.79 in1008.8 mb 0.00 in0.0 mm 0.00 in0.0 mm 0.01 in0.3 mm
08:15 AM 59.5°F15.3°C 58.4°F14.7°C 96% 6.6 mph SW10.6 kmh SW 10.7 mph17.2 kmh 29.79 in1008.8 mb 0.00 in0.0 mm 0.00 in0.0 mm 0.01 in0.3 mm
08:10 AM 59.4°F15.2°C 58.5°F14.7°C 97% 6.2 mph SW10.0 kmh SW 10.7 mph17.2 kmh 29.78 in1008.5 mb 0.00 in0.0 mm 0.00 in0.0 mm 0.01 in0.3 mm
08:05 AM 59.2°F15.1°C 58.3°F14.6°C 97% 5.5 mph SW8.9 kmh SW 10.7 mph17.2 kmh 29.78 in1008.5 mb 0.00 in0.0 mm 0.00 in0.0 mm 0.01 in0.3 mm
08:00 AM 58.8°F14.9°C 58.3°F14.6°C 98% 5.0 mph WSW8.0 kmh WSW 9.8 mph15.8 kmh 29.78 in1008.5 mb 0.00 in0.0 mm 0.00 in0.0 mm 0.01 in0.3 mm
07:55 AM 58.3°F14.6°C 57.7°F14.3°C 98% 5.8 mph SW9.3 kmh SW 9.8 mph15.8 kmh 29.78 in1008.5 mb 0.00 in0.0 mm 0.00 in0.0 mm 0.01 in0.3 mm
07:50 AM 57.9°F14.4°C 57.4°F14.1°C 98% 6.0 mph SW9.7 kmh SW 9.8 mph15.8 kmh 29.78 in1008.5 mb 0.00 in0.0 mm 0.00 in0.0 mm 0.01 in0.3 mm
07:45 AM 57.6°F14.2°C 57.0°F13.9°C 98% 5.2 mph SW8.4 kmh SW 9.8 mph15.8 kmh 29.78 in1008.5 mb 0.00 in0.0 mm 0.00 in0.0 mm 0.01 in0.3 mm
07:40 AM 57.2°F14.0°C 56.6°F13.7°C 98% 4.8 mph SW7.7 kmh SW 9.2 mph14.8 kmh 29.77 in1008.1 mb 0.00 in0.0 mm 0.00 in0.0 mm 0.01 in0.3 mm
07:35 AM 56.8°F13.8°C 56.6°F13.7°C 99% 4.6 mph SW7.4 kmh SW 7.6 mph12.2 kmh 29.77 in1008.1 mb 0.00 in0.0 mm 0.00 in0.0 mm 0.01 in0.3 mm
07:30 AM 56.5°F13.6°C 56.2°F13.4°C 99% 4.5 mph SW7.2 kmh SW 7.6 mph12.2 kmh 29.76 in1007.8 mb 0.00 in0.0 mm 0.00 in0.0 mm 0.01 in0.3 mm
07:25 AM 56.5°F13.6°C 56.2°F13.4°C 99% 4.8 mph SW7.7 kmh SW 9.2 mph14.8 kmh 29.77 in1008.1 mb 0.00 in0.0 mm 0.00 in0.0 mm 0.01 in0.3 mm
07:20 AM 56.1°F13.4°C 55.8°F13.2°C 99% 4.8 mph SW7.7 kmh SW 9.2 mph14.8 kmh 29.76 in1007.8 mb 0.00 in0.0 mm 0.00 in0.0 mm 0.01 in0.3 mm
07:15 AM 55.8°F13.2°C 55.2°F12.9°C 98% 4.3 mph SW6.9 kmh SW 9.2 mph14.8 kmh 29.77 in1008.1 mb 0.00 in0.0 mm 0.00 in0.0 mm 0.01 in0.3 mm
07:10 AM 55.6°F13.1°C 55.0°F12.8°C 98% 4.1 mph SW6.6 kmh SW 7.6 mph12.2 kmh 29.76 in1007.8 mb 0.00 in0.0 mm 0.00 in0.0 mm 0.01 in0.3 mm
07:05 AM 55.4°F13.0°C 54.8°F12.7°C 98% 3.8 mph SW6.1 kmh SW 7.6 mph12.2 kmh 29.76 in1007.8 mb 0.00 in0.0 mm 0.00 in0.0 mm 0.01 in0.3 mm
07:00 AM 55.2°F12.9°C 54.4°F12.4°C 97% 3.7 mph SW6.0 kmh SW 6.0 mph9.7 kmh 29.76 in1007.8 mb 0.00 in0.0 mm 0.00 in0.0 mm 0.01 in0.3 mm
06:55 AM 54.9°F12.7°C 54.0°F12.2°C 97% 3.5 mph SW5.6 kmh SW 6.0 mph9.7 kmh 29.76 in1007.8 mb 0.00 in0.0 mm 0.00 in0.0 mm 0.01 in0.3 mm
06:50 AM 54.7°F12.6°C 53.8°F12.1°C 97% 3.3 mph SW5.3 kmh SW 6.0 mph9.7 kmh 29.76 in1007.8 mb 0.00 in0.0 mm 0.00 in0.0 mm 0.01 in0.3 mm
06:45 AM 54.7°F12.6°C 53.8°F12.1°C 97% 3.1 mph SW5.0 kmh SW 5.4 mph8.7 kmh 29.75 in1007.5 mb 0.00 in0.0 mm 0.00 in0.0 mm 0.01 in0.3 mm
06:40 AM 54.7°F12.6°C 53.8°F12.1°C 97% 2.9 mph WSW4.7 kmh WSW 6.9 mph11.1 kmh 29.76 in1007.8 mb 0.00 in0.0 mm 0.00 in0.0 mm 0.01 in0.3 mm
06:35 AM 54.7°F12.6°C 53.8°F12.1°C 97% 2.8 mph WSW4.5 kmh WSW 6.9 mph11.1 kmh 29.76 in1007.8 mb 0.00 in0.0 mm 0.00 in0.0 mm 0.01 in0.3 mm
06:30 AM 54.7°F12.6°C 53.8°F12.1°C 97% 2.4 mph W3.9 kmh W 5.4 mph8.7 kmh 29.75 in1007.5 mb 0.00 in0.0 mm 0.00 in0.0 mm 0.01 in0.3 mm
06:25 AM 54.5°F12.5°C 53.7°F12.1°C 97% 2.4 mph W3.9 kmh W 5.4 mph8.7 kmh 29.76 in1007.8 mb 0.00 in0.0 mm 0.00 in0.0 mm 0.01 in0.3 mm
06:20 AM 54.5°F12.5°C 53.7°F12.1°C 97% 2.8 mph WSW4.5 kmh WSW 5.4 mph8.7 kmh 29.75 in1007.5 mb 0.00 in0.0 mm 0.00 in0.0 mm 0.01 in0.3 mm
06:15 AM 54.3°F12.4°C 53.5°F11.9°C 97% 3.1 mph WSW5.0 kmh WSW 6.9 mph11.1 kmh 29.75 in1007.5 mb 0.00 in0.0 mm 0.00 in0.0 mm 0.01 in0.3 mm
06:10 AM 54.1°F12.3°C 53.3°F11.8°C 97% 3.2 mph WSW5.1 kmh WSW 6.9 mph11.1 kmh 29.75 in1007.5 mb 0.00 in0.0 mm 0.00 in0.0 mm 0.01 in0.3 mm
06:05 AM 54.1°F12.3°C 53.3°F11.8°C 97% 3.2 mph SW5.1 kmh SW 5.4 mph8.7 kmh 29.75 in1007.5 mb 0.00 in0.0 mm 0.00 in0.0 mm 0.01 in0.3 mm
06:00 AM 54.1°F12.3°C 53.3°F11.8°C 97% 3.4 mph SW5.5 kmh SW 6.0 mph9.7 kmh 29.75 in1007.5 mb 0.00 in0.0 mm 0.00 in0.0 mm 0.01 in0.3 mm
05:55 AM 54.0°F12.2°C 53.1°F11.7°C 97% 3.8 mph WSW6.1 kmh WSW 6.9 mph11.1 kmh 29.75 in1007.5 mb 0.00 in0.0 mm 0.00 in0.0 mm 0.01 in0.3 mm
05:50 AM 53.8°F12.1°C 52.9°F11.6°C 97% 4.0 mph W6.4 kmh W 6.9 mph11.1 kmh 29.75 in1007.5 mb 0.00 in0.0 mm 0.00 in0.0 mm 0.01 in0.3 mm
05:45 AM 53.8°F12.1°C 52.9°F11.6°C 97% 3.9 mph WSW6.3 kmh WSW 6.9 mph11.1 kmh 29.75 in1007.5 mb 0.00 in0.0 mm 0.00 in0.0 mm 0.01 in0.3 mm
05:40 AM 53.6°F12.0°C 52.8°F11.6°C 97% 3.9 mph WSW6.3 kmh WSW 6.9 mph11.1 kmh 29.75 in1007.5 mb 0.00 in0.0 mm 0.00 in0.0 mm 0.01 in0.3 mm
05:35 AM 53.4°F11.9°C 52.9°F11.6°C 98% 3.5 mph WSW5.6 kmh WSW 6.9 mph11.1 kmh 29.75 in1007.5 mb 0.00 in0.0 mm 0.00 in0.0 mm 0.01 in0.3 mm
05:30 AM 53.2°F11.8°C 52.7°F11.5°C 98% 3.0 mph SW4.8 kmh SW 5.4 mph8.7 kmh 29.75 in1007.5 mb 0.00 in0.0 mm 0.00 in0.0 mm 0.01 in0.3 mm
05:25 AM 53.6°F12.0°C 52.8°F11.6°C 97% 2.8 mph SW4.5 kmh SW 5.4 mph8.7 kmh 29.74 in1007.1 mb 0.00 in0.0 mm 0.00 in0.0 mm 0.01 in0.3 mm
05:20 AM 53.6°F12.0°C 52.8°F11.6°C 97% 2.0 mph SW3.2 kmh SW 4.5 mph7.2 kmh 29.74 in1007.1 mb 0.00 in0.0 mm 0.00 in0.0 mm 0.01 in0.3 mm
05:15 AM 53.8°F12.1°C 52.9°F11.6°C 97% 1.2 mph WSW1.9 kmh WSW 3.8 mph6.1 kmh 29.74 in1007.1 mb 0.00 in0.0 mm 0.00 in0.0 mm 0.01 in0.3 mm
05:10 AM 54.0°F12.2°C 53.1°F11.7°C 97% 1.1 mph W1.8 kmh W 3.1 mph5.0 kmh 29.73 in1006.8 mb 0.00 in0.0 mm 0.00 in0.0 mm 0.01 in0.3 mm
05:05 AM 54.1°F12.3°C 53.3°F11.8°C 97% 1.5 mph SW2.4 kmh SW 4.5 mph7.2 kmh 29.74 in1007.1 mb 0.00 in0.0 mm 0.00 in0.0 mm 0.01 in0.3 mm
05:00 AM 54.3°F12.4°C 53.5°F11.9°C 97% 2.2 mph WSW3.5 kmh WSW 5.4 mph8.7 kmh 29.74 in1007.1 mb 0.00 in0.0 mm 0.00 in0.0 mm 0.01 in0.3 mm
04:55 AM 54.3°F12.4°C 53.5°F11.9°C 97% 3.1 mph WSW5.0 kmh WSW 6.9 mph11.1 kmh 29.74 in1007.1 mb 0.00 in0.0 mm 0.00 in0.0 mm 0.01 in0.3 mm
04:50 AM 54.3°F12.4°C 53.5°F11.9°C 97% 3.3 mph SW5.3 kmh SW 6.9 mph11.1 kmh 29.73 in1006.8 mb 0.00 in0.0 mm 0.00 in0.0 mm 0.01 in0.3 mm
04:45 AM 54.3°F12.4°C 53.5°F11.9°C 97% 3.1 mph SW5.0 kmh SW 6.0 mph9.7 kmh 29.73 in1006.8 mb 0.00 in0.0 mm 0.00 in0.0 mm 0.01 in0.3 mm
04:40 AM 54.1°F12.3°C 53.3°F11.8°C 97% 3.5 mph SW5.6 kmh SW 6.9 mph11.1 kmh 29.74 in1007.1 mb 0.00 in0.0 mm 0.00 in0.0 mm 0.01 in0.3 mm
04:35 AM 54.1°F12.3°C 53.3°F11.8°C 97% 4.1 mph SW6.6 kmh SW 6.9 mph11.1 kmh 29.73 in1006.8 mb 0.00 in0.0 mm 0.00 in0.0 mm 0.01 in0.3 mm
04:30 AM 54.0°F12.2°C 53.1°F11.7°C 97% 3.9 mph WSW6.3 kmh WSW 6.9 mph11.1 kmh 29.74 in1007.1 mb 0.00 in0.0 mm 0.00 in0.0 mm 0.01 in0.3 mm
04:25 AM 54.0°F12.2°C 53.1°F11.7°C 97% 3.6 mph WSW5.8 kmh WSW 6.9 mph11.1 kmh 29.73 in1006.8 mb 0.00 in0.0 mm 0.00 in0.0 mm 0.01 in0.3 mm
04:20 AM 54.0°F12.2°C 53.1°F11.7°C 97% 4.0 mph WSW6.4 kmh WSW 7.6 mph12.2 kmh 29.73 in1006.8 mb 0.00 in0.0 mm 0.00 in0.0 mm 0.01 in0.3 mm
04:15 AM 53.8°F12.1°C 52.9°F11.6°C 97% 4.3 mph SW6.9 kmh SW 9.2 mph14.8 kmh 29.73 in1006.8 mb 0.00 in0.0 mm 0.00 in0.0 mm 0.01 in0.3 mm
04:10 AM 53.8°F12.1°C 52.9°F11.6°C 97% 3.5 mph SW5.6 kmh SW 9.2 mph14.8 kmh 29.73 in1006.8 mb 0.00 in0.0 mm 0.00 in0.0 mm 0.01 in0.3 mm
04:05 AM 53.6°F12.0°C 52.8°F11.6°C 97% 3.2 mph WSW5.1 kmh WSW 8.3 mph13.4 kmh 29.73 in1006.8 mb 0.00 in0.0 mm 0.00 in0.0 mm 0.01 in0.3 mm
04:00 AM 53.4°F11.9°C 52.9°F11.6°C 98% 3.3 mph WSW5.3 kmh WSW 8.3 mph13.4 kmh 29.73 in1006.8 mb 0.00 in0.0 mm 0.00 in0.0 mm 0.01 in0.3 mm
03:55 AM 53.2°F11.8°C 52.7°F11.5°C 98% 3.1 mph WSW5.0 kmh WSW 8.3 mph13.4 kmh 29.73 in1006.8 mb 0.00 in0.0 mm 0.00 in0.0 mm 0.01 in0.3 mm
03:50 AM 53.1°F11.7°C 52.5°F11.4°C 98% 2.5 mph WSW4.0 kmh WSW 5.4 mph8.7 kmh 29.73 in1006.8 mb 0.00 in0.0 mm 0.00 in0.0 mm 0.01 in0.3 mm
03:45 AM 52.7°F11.5°C 52.2°F11.2°C 98% 1.9 mph W3.1 kmh W 3.8 mph6.1 kmh 29.73 in1006.8 mb 0.00 in0.0 mm 0.00 in0.0 mm 0.01 in0.3 mm
03:40 AM 52.5°F11.4°C 52.0°F11.1°C 98% 1.4 mph WNW2.3 kmh WNW 3.8 mph6.1 kmh 29.72 in1006.4 mb 0.00 in0.0 mm 0.00 in0.0 mm 0.01 in0.3 mm
03:35 AM 52.7°F11.5°C 52.2°F11.2°C 98% 0.9 mph WNW1.4 kmh WNW 3.8 mph6.1 kmh 29.73 in1006.8 mb 0.00 in0.0 mm 0.00 in0.0 mm 0.01 in0.3 mm
03:30 AM 52.7°F11.5°C 52.2°F11.2°C 98% 0.7 mph W1.1 kmh W 3.8 mph6.1 kmh 29.72 in1006.4 mb 0.00 in0.0 mm 0.00 in0.0 mm 0.01 in0.3 mm
03:25 AM 52.7°F11.5°C 52.2°F11.2°C 98% 0.8 mph W1.3 kmh W 3.1 mph5.0 kmh 29.72 in1006.4 mb 0.00 in0.0 mm 0.00 in0.0 mm 0.01 in0.3 mm
03:20 AM 52.9°F11.6°C 52.3°F11.3°C 98% 1.0 mph W1.6 kmh W 3.8 mph6.1 kmh 29.72 in1006.4 mb 0.00 in0.0 mm 0.00 in0.0 mm 0.01 in0.3 mm
03:15 AM 52.9°F11.6°C 52.3°F11.3°C 98% 1.2 mph WNW1.9 kmh WNW 3.8 mph6.1 kmh 29.72 in1006.4 mb 0.00 in0.0 mm 0.00 in0.0 mm 0.01 in0.3 mm
03:10 AM 53.1°F11.7°C 52.5°F11.4°C 98% 1.2 mph W1.9 kmh W 4.5 mph7.2 kmh 29.72 in1006.4 mb 0.00 in0.0 mm 0.00 in0.0 mm 0.01 in0.3 mm
03:05 AM 53.1°F11.7°C 52.5°F11.4°C 98% 1.1 mph WSW1.8 kmh WSW 4.5 mph7.2 kmh 29.72 in1006.4 mb 0.00 in0.0 mm 0.00 in0.0 mm 0.01 in0.3 mm
03:00 AM 53.2°F11.8°C 52.7°F11.5°C 98% 1.8 mph S2.9 kmh S 6.0 mph9.7 kmh 29.72 in1006.4 mb 0.00 in0.0 mm 0.00 in0.0 mm 0.01 in0.3 mm
02:55 AM 53.2°F11.8°C 52.7°F11.5°C 98% 3.1 mph S5.0 kmh S 7.6 mph12.2 kmh 29.72 in1006.4 mb 0.00 in0.0 mm 0.00 in0.0 mm 0.01 in0.3 mm
02:50 AM 53.6°F12.0°C 52.8°F11.6°C 97% 3.1 mph SE5.0 kmh SE 7.6 mph12.2 kmh 29.71 in1006.1 mb 0.00 in0.0 mm 0.00 in0.0 mm 0.01 in0.3 mm
02:45 AM 53.6°F12.0°C 52.8°F11.6°C 97% 2.1 mph SE3.4 kmh SE 6.9 mph11.1 kmh 29.71 in1006.1 mb 0.00 in0.0 mm 0.00 in0.0 mm 0.01 in0.3 mm
02:40 AM 53.6°F12.0°C 52.8°F11.6°C 97% 1.5 mph SE2.4 kmh SE 5.4 mph8.7 kmh 29.71 in1006.1 mb 0.00 in0.0 mm 0.00 in0.0 mm 0.01 in0.3 mm
02:35 AM 53.6°F12.0°C 52.8°F11.6°C 97% 1.8 mph ESE2.9 kmh ESE 6.0 mph9.7 kmh 29.72 in1006.4 mb 0.00 in0.0 mm 0.00 in0.0 mm 0.01 in0.3 mm
02:30 AM 53.8°F12.1°C 52.9°F11.6°C 97% 2.1 mph SSE3.4 kmh SSE 6.0 mph9.7 kmh 29.71 in1006.1 mb 0.00 in0.0 mm 0.00 in0.0 mm 0.01 in0.3 mm
02:25 AM 53.6°F12.0°C 52.8°F11.6°C 97% 1.5 mph S2.4 kmh S 6.0 mph9.7 kmh 29.71 in1006.1 mb 0.00 in0.0 mm 0.00 in0.0 mm 0.01 in0.3 mm
02:20 AM 53.6°F12.0°C 52.8°F11.6°C 97% 1.1 mph NNW1.8 kmh NNW 4.5 mph7.2 kmh 29.71 in1006.1 mb 0.00 in0.0 mm 0.00 in0.0 mm 0.01 in0.3 mm
02:15 AM 53.6°F12.0°C 52.8°F11.6°C 97% 1.4 mph NE2.3 kmh NE 6.0 mph9.7 kmh 29.71 in1006.1 mb 0.00 in0.0 mm 0.00 in0.0 mm 0.01 in0.3 mm
02:10 AM 53.6°F12.0°C 52.8°F11.6°C 97% 1.3 mph SSE2.1 kmh SSE 6.0 mph9.7 kmh 29.71 in1006.1 mb 0.00 in0.0 mm 0.00 in0.0 mm 0.01 in0.3 mm
02:05 AM 53.8°F12.1°C 52.9°F11.6°C 97% 1.2 mph S1.9 kmh S 5.4 mph8.7 kmh 29.71 in1006.1 mb 0.00 in0.0 mm 0.00 in0.0 mm 0.01 in0.3 mm
02:00 AM 53.8°F12.1°C 52.9°F11.6°C 97% 1.2 mph SSE1.9 kmh SSE 3.8 mph6.1 kmh 29.71 in1006.1 mb 0.00 in0.0 mm 0.00 in0.0 mm 0.01 in0.3 mm
01:55 AM 53.8°F12.1°C 52.9°F11.6°C 97% 0.9 mph WNW1.4 kmh WNW 3.8 mph6.1 kmh 29.71 in1006.1 mb 0.00 in0.0 mm 0.00 in0.0 mm 0.01 in0.3 mm
01:50 AM 53.8°F12.1°C 52.9°F11.6°C 97% 1.2 mph W1.9 kmh W 3.8 mph6.1 kmh 29.71 in1006.1 mb 0.00 in0.0 mm 0.00 in0.0 mm 0.01 in0.3 mm
01:45 AM 54.0°F12.2°C 53.1°F11.7°C 97% 1.4 mph WSW2.3 kmh WSW 3.8 mph6.1 kmh 29.71 in1006.1 mb 0.00 in0.0 mm 0.00 in0.0 mm 0.01 in0.3 mm
01:40 AM 54.0°F12.2°C 53.1°F11.7°C 97% 1.0 mph WNW1.6 kmh WNW 3.1 mph5.0 kmh 29.71 in1006.1 mb 0.00 in0.0 mm 0.00 in0.0 mm 0.01 in0.3 mm
01:35 AM 54.0°F12.2°C 53.1°F11.7°C 97% 0.8 mph NW1.3 kmh NW 2.2 mph3.5 kmh 29.71 in1006.1 mb 0.00 in0.0 mm 0.00 in0.0 mm 0.01 in0.3 mm
01:30 AM 54.1°F12.3°C 53.3°F11.8°C 97% 0.6 mph NNW1.0 kmh NNW 3.1 mph5.0 kmh 29.71 in1006.1 mb 0.00 in0.0 mm 0.00 in0.0 mm 0.01 in0.3 mm
01:25 AM 54.1°F12.3°C 53.3°F11.8°C 97% 0.8 mph WNW1.3 kmh WNW 3.1 mph5.0 kmh 29.71 in1006.1 mb 0.00 in0.0 mm 0.00 in0.0 mm 0.01 in0.3 mm
01:20 AM 54.3°F12.4°C 53.5°F11.9°C 97% 1.3 mph W2.1 kmh W 3.1 mph5.0 kmh 29.71 in1006.1 mb 0.00 in0.0 mm 0.00 in0.0 mm 0.01 in0.3 mm
01:15 AM 54.3°F12.4°C 53.5°F11.9°C 97% 1.1 mph WSW1.8 kmh WSW 3.1 mph5.0 kmh 29.71 in1006.1 mb 0.00 in0.0 mm 0.00 in0.0 mm 0.01 in0.3 mm
01:10 AM 54.3°F12.4°C 53.5°F11.9°C 97% 0.9 mph W1.4 kmh W 4.5 mph7.2 kmh 29.71 in1006.1 mb 0.01 in0.3 mm 0.00 in0.0 mm 0.01 in0.3 mm
01:05 AM 54.3°F12.4°C 53.5°F11.9°C 97% 1.1 mph W1.8 kmh W 4.5 mph7.2 kmh 29.71 in1006.1 mb 0.01 in0.3 mm 0.00 in0.0 mm 0.01 in0.3 mm
01:00 AM 54.3°F12.4°C 53.5°F11.9°C 97% 1.3 mph WNW2.1 kmh WNW 3.1 mph5.0 kmh 29.71 in1006.1 mb 0.01 in0.3 mm 0.00 in0.0 mm 0.01 in0.3 mm
12:55 AM 54.5°F12.5°C 53.7°F12.1°C 97% 0.7 mph WNW1.1 kmh WNW 3.1 mph5.0 kmh 29.71 in1006.1 mb 0.01 in0.3 mm 0.00 in0.0 mm 0.01 in0.3 mm
12:50 AM 54.5°F12.5°C 53.7°F12.1°C 97% 0.3 mph NW0.5 kmh NW 1.6 mph2.6 kmh 29.71 in1006.1 mb 0.01 in0.3 mm 0.00 in0.0 mm 0.01 in0.3 mm
12:45 AM 54.5°F12.5°C 53.7°F12.1°C 97% 0.4 mph NW0.6 kmh NW 3.1 mph5.0 kmh 29.71 in1006.1 mb 0.01 in0.3 mm 0.00 in0.0 mm 0.01 in0.3 mm
12:40 AM 54.7°F12.6°C 53.8°F12.1°C 97% 0.5 mph S0.8 kmh S 3.1 mph5.0 kmh 29.71 in1006.1 mb 0.01 in0.3 mm 0.00 in0.0 mm 0.01 in0.3 mm
12:35 AM 54.7°F12.6°C 53.8°F12.1°C 97% 0.5 mph S0.8 kmh S 3.1 mph5.0 kmh 29.71 in1006.1 mb 0.01 in0.3 mm 0.00 in0.0 mm 0.01 in0.3 mm
12:30 AM 54.9°F12.7°C 54.0°F12.2°C 97% 0.6 mph WSW1.0 kmh WSW 2.2 mph3.5 kmh 29.71 in1006.1 mb 0.01 in0.3 mm 0.00 in0.0 mm 0.01 in0.3 mm
12:25 AM 54.9°F12.7°C 54.0°F12.2°C 97% 0.9 mph W1.4 kmh W 2.2 mph3.5 kmh 29.71 in1006.1 mb 0.01 in0.3 mm 0.00 in0.0 mm 0.01 in0.3 mm
12:20 AM 55.0°F12.8°C 54.2°F12.3°C 97% 0.8 mph WNW1.3 kmh WNW 3.1 mph5.0 kmh 29.71 in1006.1 mb 0.01 in0.3 mm 0.00 in0.0 mm 0.01 in0.3 mm
12:15 AM 55.0°F12.8°C 54.2°F12.3°C 97% 0.6 mph NW1.0 kmh NW 3.1 mph5.0 kmh 29.71 in1006.1 mb 0.01 in0.3 mm 0.12 in3.0 mm 0.01 in0.3 mm
12:10 AM 55.2°F12.9°C 54.4°F12.4°C 97% 0.8 mph WNW1.3 kmh WNW 3.1 mph5.0 kmh 29.71 in1006.1 mb 0.00 in0.0 mm 0.00 in0.0 mm 0.00 in0.0 mm
12:05 AM 55.4°F13.0°C 54.6°F12.6°C 97% 1.0 mph W1.6 kmh W 3.8 mph6.1 kmh 29.70 in1005.8 mb 0.00 in0.0 mm 0.00 in0.0 mm 0.00 in0.0 mm
12:00 AM 55.6°F13.1°C 54.7°F12.6°C 97% 1.3 mph WNW2.1 kmh WNW 3.8 mph6.1 kmh 29.70 in1005.8 mb 0.00 in0.0 mm 0.00 in0.0 mm 0.00 in0.0 mm